Time;durP1;ratioP1;P1;durP2;ratioP2;P2;SDS_P1;SDS_P2;PMS_P1;PMS_P2;Temp;Humidity;BMP_temperature;BMP_pressure;BME280_temperature;BME280_humidity;BME280_pressure;Samples;Min_cycle;Max_cycle;Signal;HPM_P1;HPM_P2
2022/03/24 00:02:06;;;;;;;62.63;38.43;;;;;;;4.92;46.29;101814.89;1721485;83;21118;-77
2022/03/24 00:04:34;;;;;;;68.87;38.40;;;;;;;4.80;46.71;101817.39;1720981;83;21016;-79
2022/03/24 00:07:01;;;;;;;62.97;36.70;;;;;;;4.69;46.86;101813.38;1721451;83;21005;-78
2022/03/24 00:09:28;;;;;;;57.40;35.47;;;;;;;4.61;47.20;101813.73;1720948;83;21092;-79
2022/03/24 00:11:56;;;;;;;59.50;35.70;;;;;;;4.50;47.17;101817.95;1721219;83;21048;-77
2022/03/24 00:14:23;;;;;;;62.43;35.87;;;;;;;4.34;47.43;101811.27;1694271;83;21298;-76
2022/03/24 00:16:51;;;;;;;58.33;35.57;;;;;;;4.22;47.66;101808.12;1720682;83;21037;-78
2022/03/24 00:19:19;;;;;;;63.03;34.47;;;;;;;4.10;47.93;101815.77;1720898;83;21479;-78
2022/03/24 00:21:47;;;;;;;64.90;37.67;;;;;;;3.99;48.20;101815.63;1721417;83;21021;-79
2022/03/24 00:24:14;;;;;;;61.83;35.87;;;;;;;3.90;48.51;101815.92;1721160;83;21514;-78
2022/03/24 00:26:42;;;;;;;64.73;37.27;;;;;;;3.85;48.80;101817.15;1721479;83;21086;-80
2022/03/24 00:29:13;;;;;;;67.53;37.90;;;;;;;3.80;48.89;101817.11;1721081;83;21072;-77
2022/03/24 00:31:41;;;;;;;67.57;37.87;;;;;;;3.75;49.12;101808.39;1721351;83;21032;-80
2022/03/24 00:34:09;;;;;;;73.87;38.20;;;;;;;3.68;49.07;101814.77;1721256;83;20990;-80
2022/03/24 00:36:36;;;;;;;66.73;36.07;;;;;;;3.58;49.22;101808.16;1721425;83;21529;-79
2022/03/24 00:39:04;;;;;;;58.53;35.37;;;;;;;3.50;49.37;101803.29;1721194;83;21141;-76
2022/03/24 00:41:32;;;;;;;61.70;34.43;;;;;;;3.43;49.54;101807.06;1721025;83;21525;-77
2022/03/24 00:44:01;;;;;;;60.53;34.13;;;;;;;3.35;49.85;101808.23;1721293;83;21013;-80
2022/03/24 00:46:28;;;;;;;60.10;34.20;;;;;;;3.28;49.91;101811.16;1721483;82;21069;-80
2022/03/24 00:48:55;;;;;;;66.13;34.90;;;;;;;3.22;50.15;101806.33;1721108;83;21047;-81
2022/03/24 00:51:24;;;;;;;56.77;33.07;;;;;;;3.13;50.28;101810.52;1721253;83;21103;-79
2022/03/24 00:53:51;;;;;;;61.73;34.87;;;;;;;3.05;50.44;101812.53;1720931;83;21503;-80
2022/03/24 00:56:19;;;;;;;70.37;35.83;;;;;;;2.97;50.62;101807.22;1721408;83;21040;-80
2022/03/24 00:58:46;;;;;;;59.47;35.30;;;;;;;2.94;50.88;101812.75;1721106;83;21041;-77
2022/03/24 01:01:13;;;;;;;65.63;37.10;;;;;;;2.98;51.12;101808.08;1721340;83;21029;-80
2022/03/24 01:03:42;;;;;;;70.80;37.47;;;;;;;2.96;51.10;101808.47;1721096;83;21374;-79
2022/03/24 01:06:10;;;;;;;72.17;39.60;;;;;;;2.95;51.24;101811.49;1721256;83;21069;-81
2022/03/24 01:08:37;;;;;;;71.00;39.10;;;;;;;2.95;51.40;101814.52;1721084;83;21009;-79
2022/03/24 01:11:05;;;;;;;70.93;38.33;;;;;;;2.93;51.43;101812.31;1721285;83;21456;-80
2022/03/24 01:13:34;;;;;;;71.63;37.33;;;;;;;2.90;51.56;101815.28;1721149;83;21004;-77
2022/03/24 01:16:03;;;;;;;71.40;39.53;;;;;;;2.85;51.75;101818.22;1721148;83;21939;-80
2022/03/24 01:18:34;;;;;;;70.80;38.97;;;;;;;2.81;51.82;101808.66;1721143;83;21018;-80
2022/03/24 01:21:01;;;;;;;69.03;37.30;;;;;;;2.78;51.94;101813.80;1721060;83;21698;-80
2022/03/24 01:23:28;;;;;;;70.63;38.93;;;;;;;2.82;52.04;101812.98;1721080;83;21081;-81
2022/03/24 01:25:58;;;;;;;70.13;37.83;;;;;;;2.87;52.11;101815.67;1721336;83;21521;-77
2022/03/24 01:28:25;;;;;;;68.37;37.40;;;;;;;2.95;52.05;101810.63;1721057;83;21306;-80
2022/03/24 01:30:52;;;;;;;64.50;38.23;;;;;;;2.96;52.12;101809.34;1721329;83;21040;-80
2022/03/24 01:33:20;;;;;;;63.77;36.83;;;;;;;2.97;52.21;101811.10;1721063;83;21498;-79
2022/03/24 01:35:49;;;;;;;67.93;36.50;;;;;;;2.98;52.20;101814.56;1721300;83;21064;-80
2022/03/24 01:38:18;;;;;;;68.63;37.47;;;;;;;2.96;52.25;101811.06;1721041;83;21064;-79
2022/03/24 01:40:45;;;;;;;66.97;37.10;;;;;;;2.87;52.20;101807.47;1721245;83;21238;-80
2022/03/24 01:43:12;;;;;;;65.73;37.40;;;;;;;2.80;52.29;101808.23;1721178;83;20993;-80
2022/03/24 01:45:40;;;;;;;68.53;36.37;;;;;;;2.75;52.36;101807.27;1721154;83;21379;-80
2022/03/24 01:48:08;;;;;;;65.20;34.87;;;;;;;2.78;52.69;101806.45;1721089;83;21036;-81
2022/03/24 01:50:40;;;;;;;63.33;35.70;;;;;;;2.77;52.74;101807.28;1721278;83;21545;-76
2022/03/24 01:53:07;;;;;;;62.17;35.03;;;;;;;2.71;52.79;101810.63;1721085;83;21188;-80
2022/03/24 01:55:35;;;;;;;54.43;33.20;;;;;;;2.72;52.66;101807.65;1721317;83;21076;-78
2022/03/24 01:58:04;;;;;;;58.77;33.40;;;;;;;2.75;52.83;101803.39;1721025;83;20997;-79
2022/03/24 02:00:33;;;;;;;64.17;36.73;;;;;;;2.77;52.74;101808.58;1721407;83;21049;-79
2022/03/24 02:03:02;;;;;;;61.87;35.27;;;;;;;2.74;52.63;101801.62;1720937;83;21028;-80
2022/03/24 02:05:33;;;;;;;59.10;35.33;;;;;;;2.78;52.79;101806.45;1721066;83;21203;-81
2022/03/24 02:08:03;;;;;;;61.53;36.40;;;;;;;2.78;52.71;101804.73;1720461;83;21048;-79
2022/03/24 02:10:35;;;;;;;65.12;34.48;;;;;;;2.71;52.75;101806.75;1721516;83;21040;-79
2022/03/24 02:13:04;;;;;;;59.60;33.03;;;;;;;2.64;52.93;101808.38;1720995;83;20995;-81
2022/03/24 02:15:33;;;;;;;60.30;34.93;;;;;;;2.53;53.00;101813.77;1721080;83;21024;-80
2022/03/24 02:18:01;;;;;;;57.43;33.93;;;;;;;2.43;53.17;101811.42;1720908;83;21103;-80
2022/03/24 02:20:30;;;;;;;63.90;35.30;;;;;;;2.38;53.31;101814.38;1721015;83;21498;-80
2022/03/24 02:22:57;;;;;;;62.53;34.47;;;;;;;2.33;53.54;101813.80;1721213;83;21499;-80
2022/03/24 02:25:31;;;;;;;64.87;33.60;;;;;;;2.30;53.81;101816.33;1721387;83;21531;-80
2022/03/24 02:27:55;;;;;;;62.13;34.50;;;;;;;2.27;53.90;101817.56;1720114;83;21025;-81
2022/03/24 02:30:24;;;;;;;58.67;33.40;;;;;;;2.23;54.17;101816.64;1721302;83;21110;-77
2022/03/24 02:32:52;;;;;;;57.13;32.10;;;;;;;2.18;54.12;101814.38;1721051;83;21013;-77
2022/03/24 02:35:19;;;;;;;55.77;32.63;;;;;;;2.10;54.09;101815.94;1721394;83;21050;-80
2022/03/24 02:37:47;;;;;;;60.63;34.07;;;;;;;2.04;54.30;101818.41;1720900;83;21088;-80
2022/03/24 02:40:14;;;;;;;56.93;33.27;;;;;;;2.00;54.40;101819.64;1720816;83;21013;-80
2022/03/24 02:42:42;;;;;;;58.60;33.87;;;;;;;1.95;54.52;101814.78;1721302;83;21195;-78
2022/03/24 02:45:10;;;;;;;56.60;32.60;;;;;;;1.90;54.51;101818.12;1721362;83;20945;-80
2022/03/24 02:47:38;;;;;;;67.63;34.90;;;;;;;1.87;54.75;101818.92;1721201;83;21028;-77
2022/03/24 02:50:07;;;;;;;58.73;33.57;;;;;;;1.81;54.71;101820.52;1721531;83;21045;-80
2022/03/24 02:52:34;;;;;;;57.08;32.53;;;;;;;1.75;54.94;101823.41;1721348;83;21107;-80
2022/03/24 02:55:03;;;;;;;58.13;33.10;;;;;;;1.69;55.03;101819.41;1721412;83;22094;-75
2022/03/24 02:57:31;;;;;;;55.70;33.00;;;;;;;1.66;55.28;101821.90;1721078;83;21025;-80
2022/03/24 02:59:58;;;;;;;60.80;34.70;;;;;;;1.61;55.26;101820.95;1721582;83;21048;-76
2022/03/24 03:02:25;;;;;;;51.97;31.67;;;;;;;1.57;55.47;101819.12;1721234;83;20944;-80
2022/03/24 03:04:53;;;;;;;59.63;33.97;;;;;;;1.53;55.59;101818.61;1721416;83;21044;-79
2022/03/24 03:07:21;;;;;;;56.83;34.23;;;;;;;1.54;55.87;101820.34;1721198;83;21150;-80
2022/03/24 03:09:49;;;;;;;62.40;31.90;;;;;;;1.54;55.83;101822.50;1721197;83;21087;-78
2022/03/24 03:12:16;;;;;;;57.03;32.80;;;;;;;1.50;55.81;101824.58;1721184;83;21001;-78
2022/03/24 03:14:46;;;;;;;59.43;31.80;;;;;;;1.44;55.88;101828.32;1721393;83;21025;-79
2022/03/24 03:17:15;;;;;;;57.43;32.03;;;;;;;1.44;56.07;101829.61;1721192;83;21537;-78
2022/03/24 03:19:43;;;;;;;57.87;33.33;;;;;;;1.40;56.04;101827.77;1721208;83;21781;-81
2022/03/24 03:22:10;;;;;;;56.43;32.00;;;;;;;1.33;56.14;101833.23;1721001;83;20998;-80
2022/03/24 03:24:39;;;;;;;57.80;32.87;;;;;;;1.28;56.27;101834.83;1721451;83;21060;-80
2022/03/24 03:27:08;;;;;;;58.83;32.73;;;;;;;1.22;56.38;101833.39;1721142;83;20986;-79
2022/03/24 03:29:35;;;;;;;60.00;33.70;;;;;;;1.18;56.51;101837.14;1721430;83;21340;-80
2022/03/24 03:32:04;;;;;;;56.70;31.40;;;;;;;1.13;56.59;101834.86;1721267;83;21098;-80
2022/03/24 03:34:31;;;;;;;58.87;33.30;;;;;;;1.08;56.74;101842.09;1721263;83;21529;-81
2022/03/24 03:37:02;;;;;;;60.07;32.20;;;;;;;1.09;56.90;101837.80;1721241;83;20870;-80
2022/03/24 03:39:29;;;;;;;61.57;32.33;;;;;;;1.04;56.97;101840.25;1721134;83;20988;-81
2022/03/24 03:41:57;;;;;;;54.03;31.63;;;;;;;1.01;57.12;101838.89;1721468;83;21518;-80
2022/03/24 03:44:24;;;;;;;57.43;30.83;;;;;;;1.02;57.30;101840.63;1721400;83;21168;-74
2022/03/24 03:46:52;;;;;;;53.97;31.80;;;;;;;0.99;57.22;101837.10;1721041;83;21010;-79
2022/03/24 03:49:21;;;;;;;57.37;33.47;;;;;;;0.93;57.23;101839.53;1721392;83;22011;-80
2022/03/24 03:51:49;;;;;;;52.93;30.70;;;;;;;0.90;57.46;101837.75;1721124;83;21013;-79
2022/03/24 03:54:16;;;;;;;56.63;33.60;;;;;;;0.91;57.59;101841.19;1721566;83;21479;-80
2022/03/24 03:56:43;;;;;;;58.77;32.97;;;;;;;0.86;57.59;101841.09;1721120;83;22075;-79
2022/03/24 03:59:10;;;;;;;61.00;32.93;;;;;;;0.80;57.63;101843.07;1720964;83;21001;-79
2022/03/24 04:01:37;;;;;;;56.93;32.50;;;;;;;0.77;57.78;101839.55;1745277;79;21033;-79
2022/03/24 04:04:07;;;;;;;59.17;34.43;;;;;;;0.76;57.85;101833.94;1745897;81;21052;-79
2022/03/24 04:06:34;;;;;;;59.83;32.63;;;;;;;0.73;57.96;101836.44;1736054;82;21478;-79
2022/03/24 04:09:01;;;;;;;53.80;31.57;;;;;;;0.70;58.02;101839.81;1736192;82;21119;-79
2022/03/24 04:11:32;;;;;;;54.17;31.53;;;;;;;0.70;58.19;101837.23;1736222;82;21032;-79
2022/03/24 04:13:59;;;;;;;;;;;;;;;0.73;58.31;101839.02;1738927;82;21060;-80
2022/03/24 04:16:26;;;;;;;55.67;29.67;;;;;;;0.70;58.48;101840.23;1749155;81;20196;-80
2022/03/24 04:18:53;;;;;;;55.73;30.63;;;;;;;0.65;58.38;101840.97;1768326;81;21016;-78
2022/03/24 04:21:20;;;;;;;51.43;31.87;;;;;;;0.62;58.37;101842.61;1768424;81;21120;-81
2022/03/24 04:23:48;;;;;;;53.03;31.63;;;;;;;0.54;58.37;101843.69;1768270;81;20984;-80
2022/03/24 04:26:16;;;;;;;60.10;32.13;;;;;;;0.51;58.45;101848.77;1768722;81;21521;-78
2022/03/24 04:28:43;;;;;;;56.23;32.57;;;;;;;0.44;58.59;101846.83;1741029;81;20984;-80
2022/03/24 04:31:12;;;;;;;61.90;33.13;;;;;;;0.40;58.64;101845.88;1744481;81;21027;-76
2022/03/24 04:33:39;;;;;;;55.67;32.40;;;;;;;0.40;58.79;101852.75;1736443;81;21041;-81
2022/03/24 04:36:10;;;;;;;56.60;33.73;;;;;;;0.41;59.07;101859.65;1736680;81;21543;-81
2022/03/24 04:38:38;;;;;;;57.80;33.00;;;;;;;0.43;59.16;101857.57;1737750;81;20981;-76
2022/03/24 04:41:06;;;;;;;56.10;32.80;;;;;;;0.44;59.25;101864.89;1737946;82;21012;-74
2022/03/24 04:43:34;;;;;;;57.93;31.80;;;;;;;0.45;59.23;101861.50;1737519;82;21013;-76
2022/03/24 04:46:01;;;;;;;65.20;32.73;;;;;;;0.41;59.15;101860.52;1742226;81;21055;-74
2022/03/24 04:48:28;;;;;;;61.90;32.50;;;;;;;0.37;59.15;101870.30;1737581;82;21040;-73
2022/03/24 04:50:55;;;;;;;55.00;32.37;;;;;;;0.37;59.39;101869.02;1737997;82;21419;-75
2022/03/24 04:53:22;;;;;;;57.10;32.43;;;;;;;0.33;59.25;101870.16;1737450;82;21017;-74
2022/03/24 04:55:49;;;;;;;63.20;33.47;;;;;;;0.28;59.42;101873.02;1737902;82;20986;-75
2022/03/24 04:58:16;;;;;;;55.53;32.43;;;;;;;0.28;59.48;101875.60;1737596;82;21134;-75
2022/03/24 05:00:43;;;;;;;64.30;33.77;;;;;;;0.25;59.63;101871.65;1737572;82;21098;-76
2022/03/24 05:03:10;;;;;;;62.30;31.97;;;;;;;0.25;59.69;101875.52;1699192;84;21028;-78
2022/03/24 05:05:37;;;;;;;65.80;34.10;;;;;;;0.22;59.73;101876.30;1673296;84;21061;-80
2022/03/24 05:08:06;;;;;;;60.00;33.67;;;;;;;0.22;59.79;101877.59;1673966;85;21303;-80
2022/03/24 05:10:33;;;;;;;66.13;34.27;;;;;;;0.22;60.02;101875.02;1666182;86;21121;-75
2022/03/24 05:13:00;;;;;;;57.17;33.90;;;;;;;0.21;60.02;101878.02;1665999;86;20969;-76
2022/03/24 05:15:27;;;;;;;60.30;33.77;;;;;;;0.19;60.11;101877.12;1666010;86;21002;-78
2022/03/24 05:17:54;;;;;;;59.97;32.10;;;;;;;0.22;60.28;101880.17;1666066;86;21033;-78
2022/03/24 05:20:21;;;;;;;54.03;31.33;;;;;;;0.25;60.32;101882.87;1665992;86;21013;-79
2022/03/24 05:22:49;;;;;;;64.83;33.37;;;;;;;0.25;60.33;101881.58;1666118;85;21170;-78
2022/03/24 05:25:16;;;;;;;61.20;34.00;;;;;;;0.25;60.42;101886.73;1666291;85;20997;-79
2022/03/24 05:27:43;;;;;;;66.80;35.20;;;;;;;0.24;60.57;101879.80;1665913;86;21525;-79
2022/03/24 05:30:11;;;;;;;64.07;33.70;;;;;;;0.25;60.64;101884.55;1666080;85;21288;-75
2022/03/24 05:32:41;;;;;;;60.20;33.57;;;;;;;0.30;60.87;101884.27;1666047;86;21105;-74
2022/03/24 05:35:10;;;;;;;57.62;32.03;;;;;;;0.34;60.90;101886.12;1666408;86;21810;-76
2022/03/24 05:37:37;;;;;;;61.70;32.13;;;;;;;0.37;61.06;101893.94;1666351;84;21559;-75
2022/03/24 05:40:06;;;;;;;56.93;31.73;;;;;;;0.42;61.17;101893.23;1666963;86;21092;-73
2022/03/24 05:42:34;;;;;;;61.20;33.63;;;;;;;0.47;61.29;101894.64;1705246;83;37681;-75
2022/03/24 05:45:02;;;;;;;61.50;33.70;;;;;;;0.53;61.37;101893.97;1717433;83;20996;-77
2022/03/24 05:47:30;;;;;;;63.23;33.87;;;;;;;0.56;61.45;101894.92;1705606;84;21114;-76
2022/03/24 05:49:57;;;;;;;69.17;36.07;;;;;;;0.63;61.61;101894.66;1679755;85;21009;-82
2022/03/24 05:52:43;;;;;;;65.13;34.83;;;;;;;0.72;61.74;101900.09;1683423;83;21095;-77
2022/03/24 05:55:10;;;;;;;61.07;34.80;;;;;;;0.86;61.92;101896.59;1680362;84;21026;-75
2022/03/24 05:57:37;;;;;;;85.33;42.37;;;;;;;0.96;61.92;101898.56;1710532;83;21091;-75
2022/03/24 06:00:07;;;;;;;115.53;56.47;;;;;;;1.07;62.06;101899.72;1702464;83;21206;-74
2022/03/24 06:02:36;;;;;;;122.63;57.93;;;;;;;1.21;62.08;101894.91;1705095;83;21070;-74
2022/03/24 06:05:09;;;;;;;166.60;73.97;;;;;;;1.36;62.00;101889.66;1713952;82;21030;-74
2022/03/24 06:07:36;;;;;;;153.97;73.53;;;;;;;1.51;61.96;101888.75;1733233;82;21483;-75
2022/03/24 06:10:04;;;;;;;110.40;54.87;;;;;;;1.65;61.83;101881.33;1713367;83;21114;-75
2022/03/24 06:12:31;;;;;;;106.27;51.80;;;;;;;1.78;61.77;101889.83;1696228;84;21132;-74
2022/03/24 06:14:59;;;;;;;121.90;60.07;;;;;;;1.91;61.66;101892.25;1696583;84;21452;-78
2022/03/24 06:17:26;;;;;;;89.73;48.57;;;;;;;2.04;61.66;101895.99;1696241;84;22072;-74
2022/03/24 06:19:53;;;;;;;73.70;42.47;;;;;;;2.17;61.58;101893.70;1695251;84;21497;-74
2022/03/24 06:22:21;;;;;;;75.27;42.83;;;;;;;2.31;61.51;101894.42;1700393;83;21042;-74
2022/03/24 06:24:48;;;;;;;94.03;52.53;;;;;;;2.43;61.48;101894.23;1684691;83;21200;-76
2022/03/24 06:27:17;;;;;;;99.43;52.03;;;;;;;2.56;61.51;101885.01;1687598;84;21512;-75
2022/03/24 06:29:44;;;;;;;91.43;47.80;;;;;;;2.68;61.46;101893.42;1714419;83;20980;-75
2022/03/24 06:32:13;;;;;;;73.00;41.80;;;;;;;2.80;61.48;101891.09;1716684;83;21071;-74
2022/03/24 06:34:40;;;;;;;73.37;41.23;;;;;;;2.93;61.88;101892.59;1693871;84;21051;-74
2022/03/24 06:37:07;;;;;;;65.13;37.30;;;;;;;3.04;61.59;101886.75;1724219;83;21204;-76
2022/03/24 06:39:34;;;;;;;64.70;38.47;;;;;;;3.15;61.30;101886.08;1724012;83;21496;-74
2022/03/24 06:42:02;;;;;;;61.47;38.27;;;;;;;3.24;61.08;101893.61;1708422;84;21007;-75
2022/03/24 06:44:29;;;;;;;67.47;37.97;;;;;;;3.35;60.89;101897.25;1708370;84;21506;-76
2022/03/24 06:46:57;;;;;;;63.77;36.70;;;;;;;3.45;60.86;101899.55;1708354;84;21455;-78
2022/03/24 06:49:24;;;;;;;68.67;37.77;;;;;;;3.55;60.59;101903.17;1724244;83;21207;-75
2022/03/24 06:51:51;;;;;;;67.47;37.03;;;;;;;3.66;60.42;101900.73;1723942;83;20987;-75
2022/03/24 06:54:18;;;;;;;63.47;38.20;;;;;;;3.75;60.27;101904.78;1712831;82;21083;-74
2022/03/24 06:56:45;;;;;;;67.43;38.83;;;;;;;3.82;60.17;101900.11;1714405;83;21034;-74
2022/03/24 06:59:12;;;;;;;62.10;37.20;;;;;;;3.90;60.13;101901.52;1714168;83;21014;-76
2022/03/24 07:01:40;;;;;;;58.73;36.50;;;;;;;4.00;60.10;101896.92;1716872;83;21797;-75
2022/03/24 07:04:07;;;;;;;66.90;38.80;;;;;;;4.11;59.85;101902.27;1725180;82;21003;-76
2022/03/24 07:06:34;;;;;;;59.30;36.20;;;;;;;4.21;59.81;101902.81;1739728;82;21006;-78
2022/03/24 07:09:01;;;;;;;61.50;37.57;;;;;;;4.30;59.69;101900.79;1739445;82;20954;-77
2022/03/24 07:11:28;;;;;;;60.57;36.47;;;;;;;4.40;59.57;101903.92;1712366;82;21041;-76
2022/03/24 07:13:55;;;;;;;61.07;37.27;;;;;;;4.48;59.32;101906.19;1739188;82;21116;-77
2022/03/24 07:16:22;;;;;;;56.87;36.60;;;;;;;4.55;59.18;101902.83;1739282;82;21054;-76
2022/03/24 07:18:49;;;;;;;61.03;38.53;;;;;;;4.62;59.09;101906.36;1739015;82;21070;-76
2022/03/24 07:21:15;;;;;;;64.00;39.50;;;;;;;4.72;59.05;101908.65;1739341;82;21439;-75
2022/03/24 07:23:43;;;;;;;58.77;38.20;;;;;;;4.81;58.84;101910.04;1739485;82;21548;-80
2022/03/24 07:26:10;;;;;;;63.20;37.23;;;;;;;4.89;58.75;101905.80;1739926;82;22100;-82
2022/03/24 07:28:37;;;;;;;62.20;38.47;;;;;;;4.97;58.65;101905.45;1739623;82;20947;-84
2022/03/24 07:31:17;;;;;;;61.83;38.17;;;;;;;5.05;58.44;101909.00;1739917;82;20931;-83
2022/03/24 07:33:45;;;;;;;62.23;38.67;;;;;;;5.11;58.30;101893.45;1739655;82;21062;-81
2022/03/24 07:36:13;;;;;;;61.13;37.50;;;;;;;5.14;57.91;101898.67;1739772;82;20987;-79
2022/03/24 07:38:41;;;;;;;64.77;39.33;;;;;;;5.24;57.97;101910.05;1739521;82;21210;-81
2022/03/24 07:41:09;;;;;;;61.37;37.17;;;;;;;5.34;57.88;101907.08;1739442;82;21512;-78
2022/03/24 07:43:36;;;;;;;61.63;37.47;;;;;;;5.44;57.73;101908.05;1739711;82;21006;-83
2022/03/24 07:46:03;;;;;;;59.43;36.63;;;;;;;5.52;57.68;101905.08;1739761;82;21023;-85
2022/03/24 07:48:30;;;;;;;58.53;38.00;;;;;;;5.63;57.49;101910.38;1739712;82;22032;-79
2022/03/24 07:51:00;;;;;;;60.97;37.73;;;;;;;5.74;57.50;101906.11;1739667;82;21109;-79
2022/03/24 07:53:36;;;;;;;63.87;37.97;;;;;;;5.83;57.29;101906.17;1739516;82;20995;-78
2022/03/24 07:56:03;;;;;;;61.10;38.03;;;;;;;5.93;57.17;101908.02;1739315;82;21039;-81
2022/03/24 07:58:31;;;;;;;57.70;37.20;;;;;;;6.04;57.09;101905.45;1739470;82;20995;-77
2022/03/24 08:00:59;;;;;;;62.30;37.63;;;;;;;6.17;56.87;101914.20;1739674;82;21289;-78
2022/03/24 08:03:26;;;;;;;56.20;36.77;;;;;;;6.27;56.80;101910.80;1730294;82;21129;-76
2022/03/24 08:05:53;;;;;;;61.53;39.20;;;;;;;6.41;56.74;101911.73;1728661;83;21043;-80
2022/03/24 08:08:20;;;;;;;63.33;39.20;;;;;;;6.60;56.79;101909.20;1728831;83;21027;-81
2022/03/24 08:10:50;;;;;;;61.57;38.13;;;;;;;6.75;56.40;101904.03;1728698;83;21543;-80
2022/03/24 08:13:19;;;;;;;61.93;37.77;;;;;;;6.88;56.23;101906.24;1729016;83;21019;-82
2022/03/24 08:15:47;;;;;;;58.30;37.40;;;;;;;7.03;56.01;101904.09;1728727;83;21236;-81
2022/03/24 08:18:16;;;;;;;60.80;37.27;;;;;;;7.21;56.06;101907.17;1728664;83;21012;-78
2022/03/24 08:20:45;;;;;;;62.80;39.40;;;;;;;7.38;55.67;101911.95;1728702;83;21026;-80
2022/03/24 08:23:13;;;;;;;63.40;38.37;;;;;;;7.53;55.44;101917.16;1728737;83;21023;-78
2022/03/24 08:25:42;;;;;;;56.30;37.00;;;;;;;7.68;55.08;101918.91;1729066;83;21532;-75
2022/03/24 08:28:10;;;;;;;60.80;38.60;;;;;;;7.78;54.68;101910.18;1728726;83;21477;-83
2022/03/24 08:30:38;;;;;;;57.83;37.20;;;;;;;7.94;54.66;101912.78;1712602;83;20959;-75
2022/03/24 08:33:09;;;;;;;53.20;35.60;;;;;;;8.12;54.43;101911.85;1700116;83;21050;-79
2022/03/24 08:35:47;;;;;;;56.70;36.60;;;;;;;8.33;54.29;101917.47;1714323;83;21041;-80
2022/03/24 08:38:14;;;;;;;57.30;35.30;;;;;;;8.56;53.81;101913.03;1699740;84;21569;-81
2022/03/24 08:40:41;;;;;;;53.80;34.10;;;;;;;8.77;53.63;101916.44;1717332;82;21249;-80
2022/03/24 08:43:08;;;;;;;53.70;35.27;;;;;;;8.96;53.02;101917.20;1720798;83;21030;-75
2022/03/24 08:45:37;;;;;;;53.97;34.90;;;;;;;9.09;52.66;101914.92;1708786;84;21011;-80
2022/03/24 08:48:06;;;;;;;51.73;35.20;;;;;;;9.28;52.63;101915.66;1724916;83;21005;-78
2022/03/24 08:50:35;;;;;;;51.27;34.03;;;;;;;9.48;52.27;101915.53;1718171;83;21526;-79
2022/03/24 08:53:04;;;;;;;49.83;32.23;;;;;;;9.66;52.03;101910.56;1699441;84;21135;-81
2022/03/24 08:55:33;;;;;;;54.00;33.17;;;;;;;9.87;51.27;101915.61;1702261;82;20951;-81
2022/03/24 08:58:00;;;;;;;47.67;31.70;;;;;;;9.99;50.91;101909.37;1715473;82;20996;-81
2022/03/24 09:00:27;;;;;;;45.73;31.17;;;;;;;10.16;50.47;101908.73;1717802;82;21059;-80
2022/03/24 09:02:55;;;;;;;46.50;31.23;;;;;;;10.36;49.93;101910.29;1718019;83;21032;-83
2022/03/24 09:05:26;;;;;;;44.17;29.53;;;;;;;10.52;49.47;101912.29;1724553;81;21141;-83
2022/03/24 09:07:55;;;;;;;46.40;29.63;;;;;;;10.71;49.10;101912.47;1724844;83;21031;-84
2022/03/24 09:10:22;;;;;;;40.30;27.10;;;;;;;10.85;48.40;101906.59;1724947;83;21021;-82
2022/03/24 09:12:49;;;;;;;45.23;31.03;;;;;;;11.08;48.21;101908.87;1724924;83;21483;-84
2022/03/24 09:15:19;;;;;;;48.13;32.43;;;;;;;11.28;47.62;101911.63;1724910;83;21550;-84
2022/03/24 09:17:47;;;;;;;47.15;31.07;;;;;;;11.44;47.45;101909.63;1724910;83;21200;-84
2022/03/24 09:20:18;;;;;;;43.70;29.00;;;;;;;11.55;46.81;101905.92;1724674;83;21523;-82
2022/03/24 09:22:48;;;;;;;42.87;28.70;;;;;;;11.69;46.46;101911.39;1724864;83;20930;-84
2022/03/24 09:25:19;;;;;;;45.17;29.05;;;;;;;11.87;45.97;101911.56;1725251;83;21014;-84
2022/03/24 09:27:50;;;;;;;38.77;28.57;;;;;;;12.05;45.61;101912.52;1724752;83;21073;-83
2022/03/24 09:30:20;;;;;;;39.10;27.80;;;;;;;12.25;45.62;101912.16;1724922;83;21088;-84
2022/03/24 09:32:48;;;;;;;44.67;29.23;;;;;;;12.53;45.51;101908.96;1724596;83;21045;-84
2022/03/24 09:35:16;;;;;;;42.48;28.95;;;;;;;12.80;44.99;101910.11;1725031;83;20983;-84
2022/03/24 09:37:44;;;;;;;36.50;27.00;;;;;;;12.99;44.54;101910.11;1724537;83;21041;-84
2022/03/24 09:40:13;;;;;;;40.98;27.32;;;;;;;13.20;44.10;101907.89;1725067;83;20998;-84
2022/03/24 09:42:42;;;;;;;40.85;27.25;;;;;;;13.42;43.97;101907.81;1724887;83;21134;-76
2022/03/24 09:45:11;;;;;;;43.58;29.27;;;;;;;13.68;43.53;101911.55;1724976;83;20990;-81
2022/03/24 09:47:41;;;;;;;42.40;29.20;;;;;;;13.94;43.07;101907.79;1724883;83;21454;-80
2022/03/24 09:50:11;;;;;;;37.98;28.67;;;;;;;14.12;42.72;101909.05;1725057;83;21013;-83
2022/03/24 09:52:38;;;;;;;;;;;;;;;14.33;42.47;101909.33;1727479;83;21250;-85
2022/03/24 09:55:08;;;;;;;38.73;28.95;;;;;;;14.61;42.09;101911.63;1725014;83;21192;-83
2022/03/24 09:57:37;;;;;;;;;;;;;;;14.86;41.93;101912.22;1727265;83;21062;-83
2022/03/24 10:00:07;;;;;;;35.80;27.73;;;;;;;15.07;41.06;101911.52;1725141;83;20136;-84
2022/03/24 10:02:34;;;;;;;35.83;27.02;;;;;;;15.22;40.96;101904.91;1722300;83;21534;-80
2022/03/24 10:05:04;;;;;;;36.80;29.25;;;;;;;15.42;40.67;101912.63;1714273;83;20991;-83
2022/03/24 10:07:48;;;;;;;38.95;29.30;;;;;;;15.61;40.24;101909.31;1714303;83;21795;-79
2022/03/24 10:10:27;;;;;;;35.20;26.42;;;;;;;15.76;39.70;101910.59;1714130;83;20999;-81
2022/03/24 10:12:55;;;;;;;33.53;25.62;;;;;;;15.77;39.22;101911.48;1714540;83;21551;-80
2022/03/24 10:15:22;;;;;;;33.05;24.95;;;;;;;15.85;38.69;101912.05;1714201;83;21504;-81
2022/03/24 10:17:58;;;;;;;35.48;25.92;;;;;;;16.04;38.38;101910.94;1714559;83;21034;-81
2022/03/24 10:20:30;;;;;;;29.82;23.85;;;;;;;16.21;37.91;101911.22;1714102;83;21191;-81
2022/03/24 10:23:05;;;;;;;26.37;19.48;;;;;;;16.27;37.31;101912.77;1714365;83;20903;-81
2022/03/24 10:25:38;;;;;;;29.75;22.30;;;;;;;16.44;36.87;101909.03;1714132;83;21018;-81
2022/03/24 10:28:17;;;;;;;29.05;20.55;;;;;;;16.60;36.39;101906.68;1714121;83;21491;-81
2022/03/24 10:30:59;;;;;;;29.45;19.23;;;;;;;16.73;35.96;101903.08;1714530;83;21562;-81
2022/03/24 10:33:33;;;;;;;26.23;17.17;;;;;;;16.93;35.46;101900.56;1714129;83;21114;-81
2022/03/24 10:36:09;;;;;;;20.02;13.38;;;;;;;17.19;34.89;101893.34;1714064;83;21534;-79
2022/03/24 10:38:41;;;;;;;21.77;15.98;;;;;;;17.44;34.15;101894.52;1693397;83;21010;-82
2022/03/24 10:41:21;;;;;;;28.00;17.98;;;;;;;17.66;33.87;101894.94;1714142;83;20999;-79
2022/03/24 10:43:51;;;;;;;30.30;20.55;;;;;;;17.82;33.54;101896.89;1714172;83;21045;-86
2022/03/24 10:46:25;;;;;;;26.87;21.07;;;;;;;17.93;33.23;101895.09;1714142;83;21928;-78
2022/03/24 10:48:54;;;;;;;28.95;22.32;;;;;;;18.02;33.00;101886.72;1714072;83;21025;-79
2022/03/24 10:51:31;;;;;;;30.47;22.27;;;;;;;18.19;32.88;101890.41;1714414;83;20998;-81
2022/03/24 10:54:19;;;;;;;29.95;22.75;;;;;;;18.36;32.81;101882.53;1714491;83;20994;-83
2022/03/24 10:57:06;;;;;;;30.85;22.70;;;;;;;18.50;32.31;101877.91;1714399;83;20995;-82
2022/03/24 10:59:58;;;;;;;31.30;22.75;;;;;;;18.73;32.34;101878.14;1714337;83;21480;-82
2022/03/24 11:02:23;;;;;;;27.37;21.48;;;;;;;18.88;31.87;101877.92;1713947;83;21034;-83
2022/03/24 11:04:51;;;;;;;30.72;22.58;;;;;;;18.93;31.42;101874.11;1714260;83;21291;-83
2022/03/24 11:07:26;;;;;;;25.68;20.00;;;;;;;18.90;31.30;101872.05;1714358;83;21530;-82
2022/03/24 11:09:54;;;;;;;27.20;19.32;;;;;;;19.03;31.04;101870.99;1714391;83;21503;-82
2022/03/24 11:12:36;;;;;;;22.27;17.40;;;;;;;19.24;30.97;101871.27;1714290;83;21246;-83
2022/03/24 11:15:05;;;;;;;26.25;19.45;;;;;;;19.45;30.45;101871.11;1714199;83;21025;-82
2022/03/24 11:17:35;;;;;;;27.67;18.67;;;;;;;19.64;30.34;101867.05;1714248;83;21531;-82
2022/03/24 11:20:16;;;;;;;29.57;20.45;;;;;;;19.78;29.86;101865.41;1714327;83;21010;-82
2022/03/24 11:23:00;;;;;;;23.85;19.02;;;;;;;19.83;29.48;101858.52;1714342;83;20999;-83
2022/03/24 11:25:29;;;;;;;28.92;19.92;;;;;;;19.87;29.27;101858.77;1714521;83;21063;-81